sensor_id;sensor_type;location;lat;lon;timestamp;P1;durP1;ratioP1;P2;durP2;ratioP2
35488;SDS011;21602;55.670;37.578;2023-01-28T00:01:16;10.95;;;6.30;;
35488;SDS011;21602;55.670;37.578;2023-01-28T00:03:42;10.50;;;5.90;;
35488;SDS011;21602;55.670;37.578;2023-01-28T00:06:12;9.68;;;5.50;;
35488;SDS011;21602;55.670;37.578;2023-01-28T00:08:39;6.10;;;4.70;;
35488;SDS011;21602;55.670;37.578;2023-01-28T00:11:06;8.25;;;5.05;;
35488;SDS011;21602;55.670;37.578;2023-01-28T00:16:04;7.43;;;4.00;;
35488;SDS011;21602;55.670;37.578;2023-01-28T00:18:34;6.53;;;3.70;;
35488;SDS011;21602;55.670;37.578;2023-01-28T00:21:01;6.13;;;4.30;;
35488;SDS011;21602;55.670;37.578;2023-01-28T00:23:30;4.85;;;3.83;;
35488;SDS011;21602;55.670;37.578;2023-01-28T00:25:58;5.25;;;4.18;;
35488;SDS011;21602;55.670;37.578;2023-01-28T00:28:31;5.07;;;4.30;;
35488;SDS011;21602;55.670;37.578;2023-01-28T00:31:06;7.20;;;3.33;;
35488;SDS011;21602;55.670;37.578;2023-01-28T00:33:38;5.32;;;3.95;;
35488;SDS011;21602;55.670;37.578;2023-01-28T00:36:24;6.72;;;5.05;;
35488;SDS011;21602;55.670;37.578;2023-01-28T00:38:55;6.05;;;3.92;;
35488;SDS011;21602;55.670;37.578;2023-01-28T00:41:24;5.10;;;4.28;;
35488;SDS011;21602;55.670;37.578;2023-01-28T00:43:53;6.55;;;4.70;;
35488;SDS011;21602;55.670;37.578;2023-01-28T00:46:21;5.50;;;4.53;;
35488;SDS011;21602;55.670;37.578;2023-01-28T00:48:47;5.45;;;4.95;;
35488;SDS011;21602;55.670;37.578;2023-01-28T00:51:14;6.40;;;5.05;;
35488;SDS011;21602;55.670;37.578;2023-01-28T00:53:45;6.15;;;5.05;;
35488;SDS011;21602;55.670;37.578;2023-01-28T00:56:12;5.40;;;4.75;;
35488;SDS011;21602;55.670;37.578;2023-01-28T00:58:40;5.57;;;4.78;;
35488;SDS011;21602;55.670;37.578;2023-01-28T01:01:08;6.03;;;4.40;;
35488;SDS011;21602;55.670;37.578;2023-01-28T01:03:41;7.03;;;5.15;;
35488;SDS011;21602;55.670;37.578;2023-01-28T01:06:07;6.32;;;5.43;;
35488;SDS011;21602;55.670;37.578;2023-01-28T01:08:34;6.03;;;4.68;;
35488;SDS011;21602;55.670;37.578;2023-01-28T01:11:06;6.32;;;5.20;;
35488;SDS011;21602;55.670;37.578;2023-01-28T01:13:34;5.95;;;5.10;;
35488;SDS011;21602;55.670;37.578;2023-01-28T01:16:04;6.00;;;4.90;;
35488;SDS011;21602;55.670;37.578;2023-01-28T01:18:32;5.13;;;4.53;;
35488;SDS011;21602;55.670;37.578;2023-01-28T01:20:59;5.88;;;4.57;;
35488;SDS011;21602;55.670;37.578;2023-01-28T01:23:25;5.88;;;4.55;;
35488;SDS011;21602;55.670;37.578;2023-01-28T01:25:55;5.35;;;4.85;;
35488;SDS011;21602;55.670;37.578;2023-01-28T01:28:21;4.90;;;4.38;;
35488;SDS011;21602;55.670;37.578;2023-01-28T01:30:47;6.78;;;5.70;;
35488;SDS011;21602;55.670;37.578;2023-01-28T01:33:14;8.45;;;5.00;;
35488;SDS011;21602;55.670;37.578;2023-01-28T01:35:41;6.32;;;5.35;;
35488;SDS011;21602;55.670;37.578;2023-01-28T01:38:07;6.72;;;5.22;;
35488;SDS011;21602;55.670;37.578;2023-01-28T01:40:33;7.70;;;5.22;;
35488;SDS011;21602;55.670;37.578;2023-01-28T01:42:59;5.57;;;4.45;;
35488;SDS011;21602;55.670;37.578;2023-01-28T01:45:25;7.70;;;4.18;;
35488;SDS011;21602;55.670;37.578;2023-01-28T01:48:03;6.05;;;4.80;;
35488;SDS011;21602;55.670;37.578;2023-01-28T01:50:38;6.68;;;4.68;;
35488;SDS011;21602;55.670;37.578;2023-01-28T01:53:13;5.15;;;4.65;;
35488;SDS011;21602;55.670;37.578;2023-01-28T01:55:44;5.85;;;5.10;;
35488;SDS011;21602;55.670;37.578;2023-01-28T01:58:15;5.30;;;4.30;;
35488;SDS011;21602;55.670;37.578;2023-01-28T02:00:45;6.15;;;4.40;;
35488;SDS011;21602;55.670;37.578;2023-01-28T02:03:11;6.03;;;4.38;;
35488;SDS011;21602;55.670;37.578;2023-01-28T02:05:38;6.13;;;4.70;;
35488;SDS011;21602;55.670;37.578;2023-01-28T02:08:04;5.10;;;4.53;;
35488;SDS011;21602;55.670;37.578;2023-01-28T02:10:52;5.55;;;4.60;;
35488;SDS011;21602;55.670;37.578;2023-01-28T02:13:33;5.32;;;4.20;;
35488;SDS011;21602;55.670;37.578;2023-01-28T02:16:11;5.28;;;4.60;;
35488;SDS011;21602;55.670;37.578;2023-01-28T02:18:39;8.18;;;5.22;;
35488;SDS011;21602;55.670;37.578;2023-01-28T02:21:12;5.28;;;3.95;;
35488;SDS011;21602;55.670;37.578;2023-01-28T02:29:26;5.85;;;4.32;;
35488;SDS011;21602;55.670;37.578;2023-01-28T02:32:14;5.63;;;4.43;;
35488;SDS011;21602;55.670;37.578;2023-01-28T02:34:53;5.78;;;4.80;;
35488;SDS011;21602;55.670;37.578;2023-01-28T02:37:33;5.65;;;4.70;;
35488;SDS011;21602;55.670;37.578;2023-01-28T02:40:22;5.53;;;4.93;;
35488;SDS011;21602;55.670;37.578;2023-01-28T02:42:55;5.55;;;4.30;;
35488;SDS011;21602;55.670;37.578;2023-01-28T02:48:17;6.75;;;4.88;;
35488;SDS011;21602;55.670;37.578;2023-01-28T02:51:09;6.55;;;4.70;;
35488;SDS011;21602;55.670;37.578;2023-01-28T02:53:44;7.20;;;5.27;;
35488;SDS011;21602;55.670;37.578;2023-01-28T02:56:26;5.78;;;5.00;;
35488;SDS011;21602;55.670;37.578;2023-01-28T02:59:17;7.32;;;4.63;;
35488;SDS011;21602;55.670;37.578;2023-01-28T03:02:02;9.43;;;4.50;;
35488;SDS011;21602;55.670;37.578;2023-01-28T03:05:16;7.25;;;4.70;;
35488;SDS011;21602;55.670;37.578;2023-01-28T03:07:47;7.72;;;4.93;;
35488;SDS011;21602;55.670;37.578;2023-01-28T03:10:15;7.03;;;4.65;;
35488;SDS011;21602;55.670;37.578;2023-01-28T03:12:45;6.43;;;4.47;;
35488;SDS011;21602;55.670;37.578;2023-01-28T03:15:39;6.57;;;4.78;;
35488;SDS011;21602;55.670;37.578;2023-01-28T03:18:27;8.45;;;5.80;;
35488;SDS011;21602;55.670;37.578;2023-01-28T03:21:21;7.20;;;5.40;;
35488;SDS011;21602;55.670;37.578;2023-01-28T03:24:16;8.05;;;5.47;;
35488;SDS011;21602;55.670;37.578;2023-01-28T03:27:13;8.95;;;5.90;;
35488;SDS011;21602;55.670;37.578;2023-01-28T03:30:16;7.47;;;6.13;;
35488;SDS011;21602;55.670;37.578;2023-01-28T03:33:10;7.00;;;4.93;;
35488;SDS011;21602;55.670;37.578;2023-01-28T03:35:55;7.03;;;5.30;;
35488;SDS011;21602;55.670;37.578;2023-01-28T03:38:40;8.23;;;5.18;;
35488;SDS011;21602;55.670;37.578;2023-01-28T03:41:10;7.10;;;5.13;;
35488;SDS011;21602;55.670;37.578;2023-01-28T03:43:38;7.53;;;5.82;;
35488;SDS011;21602;55.670;37.578;2023-01-28T03:46:04;6.97;;;5.65;;
35488;SDS011;21602;55.670;37.578;2023-01-28T03:48:31;8.25;;;5.68;;
35488;SDS011;21602;55.670;37.578;2023-01-28T03:51:00;6.60;;;5.25;;
35488;SDS011;21602;55.670;37.578;2023-01-28T03:53:27;13.90;;;6.28;;
35488;SDS011;21602;55.670;37.578;2023-01-28T03:55:54;7.55;;;5.32;;
35488;SDS011;21602;55.670;37.578;2023-01-28T03:58:21;8.40;;;5.75;;
35488;SDS011;21602;55.670;37.578;2023-01-28T04:01:12;6.88;;;5.10;;
35488;SDS011;21602;55.670;37.578;2023-01-28T04:03:39;7.38;;;5.55;;
35488;SDS011;21602;55.670;37.578;2023-01-28T04:06:10;7.78;;;5.75;;
35488;SDS011;21602;55.670;37.578;2023-01-28T04:09:08;5.88;;;4.65;;
35488;SDS011;21602;55.670;37.578;2023-01-28T04:11:48;6.72;;;4.43;;
35488;SDS011;21602;55.670;37.578;2023-01-28T04:14:21;6.78;;;4.50;;
35488;SDS011;21602;55.670;37.578;2023-01-28T04:17:03;7.20;;;5.18;;
35488;SDS011;21602;55.670;37.578;2023-01-28T04:19:31;5.10;;;4.13;;
35488;SDS011;21602;55.670;37.578;2023-01-28T04:22:06;5.30;;;4.47;;
35488;SDS011;21602;55.670;37.578;2023-01-28T04:24:35;7.80;;;4.97;;
35488;SDS011;21602;55.670;37.578;2023-01-28T04:27:01;7.38;;;5.45;;
35488;SDS011;21602;55.670;37.578;2023-01-28T04:29:27;8.82;;;5.15;;
35488;SDS011;21602;55.670;37.578;2023-01-28T04:31:58;8.52;;;5.25;;
35488;SDS011;21602;55.670;37.578;2023-01-28T04:34:55;8.17;;;5.10;;
35488;SDS011;21602;55.670;37.578;2023-01-28T04:37:28;9.18;;;5.65;;
35488;SDS011;21602;55.670;37.578;2023-01-28T04:40:23;9.00;;;6.00;;
35488;SDS011;21602;55.670;37.578;2023-01-28T04:43:09;7.75;;;5.15;;
35488;SDS011;21602;55.670;37.578;2023-01-28T04:45:49;7.25;;;5.32;;
35488;SDS011;21602;55.670;37.578;2023-01-28T04:48:47;7.05;;;4.68;;
35488;SDS011;21602;55.670;37.578;2023-01-28T04:51:16;6.00;;;4.60;;
35488;SDS011;21602;55.670;37.578;2023-01-28T04:53:56;7.77;;;5.23;;
35488;SDS011;21602;55.670;37.578;2023-01-28T04:56:25;8.13;;;5.43;;
35488;SDS011;21602;55.670;37.578;2023-01-28T04:58:51;6.60;;;4.25;;
35488;SDS011;21602;55.670;37.578;2023-01-28T05:01:17;6.72;;;4.80;;
35488;SDS011;21602;55.670;37.578;2023-01-28T05:03:43;7.72;;;4.70;;
35488;SDS011;21602;55.670;37.578;2023-01-28T05:06:17;7.43;;;4.72;;
35488;SDS011;21602;55.670;37.578;2023-01-28T05:08:44;6.80;;;4.80;;
35488;SDS011;21602;55.670;37.578;2023-01-28T05:11:12;6.70;;;5.13;;
35488;SDS011;21602;55.670;37.578;2023-01-28T05:13:39;7.85;;;5.05;;
35488;SDS011;21602;55.670;37.578;2023-01-28T05:16:06;9.38;;;6.53;;
35488;SDS011;21602;55.670;37.578;2023-01-28T05:18:35;7.30;;;5.60;;
35488;SDS011;21602;55.670;37.578;2023-01-28T05:21:07;8.80;;;6.03;;
35488;SDS011;21602;55.670;37.578;2023-01-28T05:23:35;6.90;;;4.55;;
35488;SDS011;21602;55.670;37.578;2023-01-28T05:26:02;7.53;;;5.25;;
35488;SDS011;21602;55.670;37.578;2023-01-28T05:28:27;9.02;;;5.75;;
35488;SDS011;21602;55.670;37.578;2023-01-28T05:30:56;7.95;;;5.03;;
35488;SDS011;21602;55.670;37.578;2023-01-28T05:33:26;9.35;;;5.43;;
35488;SDS011;21602;55.670;37.578;2023-01-28T05:35:52;11.35;;;5.40;;
35488;SDS011;21602;55.670;37.578;2023-01-28T05:38:20;7.40;;;5.20;;
35488;SDS011;21602;55.670;37.578;2023-01-28T05:40:46;7.80;;;5.40;;
35488;SDS011;21602;55.670;37.578;2023-01-28T05:43:14;9.02;;;5.82;;
35488;SDS011;21602;55.670;37.578;2023-01-28T05:45:45;7.97;;;6.05;;
35488;SDS011;21602;55.670;37.578;2023-01-28T05:48:26;8.02;;;5.90;;
35488;SDS011;21602;55.670;37.578;2023-01-28T05:51:10;8.40;;;5.75;;
35488;SDS011;21602;55.670;37.578;2023-01-28T05:53:40;8.55;;;5.80;;
35488;SDS011;21602;55.670;37.578;2023-01-28T05:56:07;8.50;;;5.82;;
35488;SDS011;21602;55.670;37.578;2023-01-28T05:58:34;12.82;;;6.80;;
35488;SDS011;21602;55.670;37.578;2023-01-28T06:01:01;8.85;;;6.07;;
35488;SDS011;21602;55.670;37.578;2023-01-28T06:03:35;10.18;;;6.50;;
35488;SDS011;21602;55.670;37.578;2023-01-28T06:06:05;8.65;;;5.63;;
35488;SDS011;21602;55.670;37.578;2023-01-28T06:08:31;9.25;;;6.60;;
35488;SDS011;21602;55.670;37.578;2023-01-28T06:11:01;10.70;;;6.32;;
35488;SDS011;21602;55.670;37.578;2023-01-28T06:13:36;9.82;;;6.68;;
35488;SDS011;21602;55.670;37.578;2023-01-28T06:16:21;11.13;;;6.85;;
35488;SDS011;21602;55.670;37.578;2023-01-28T06:19:06;8.90;;;6.40;;
35488;SDS011;21602;55.670;37.578;2023-01-28T06:21:32;9.68;;;6.38;;
35488;SDS011;21602;55.670;37.578;2023-01-28T06:23:59;10.63;;;6.82;;
35488;SDS011;21602;55.670;37.578;2023-01-28T06:26:25;8.18;;;6.20;;
35488;SDS011;21602;55.670;37.578;2023-01-28T06:28:51;8.48;;;6.40;;
35488;SDS011;21602;55.670;37.578;2023-01-28T06:31:16;9.52;;;6.78;;
35488;SDS011;21602;55.670;37.578;2023-01-28T06:33:43;7.72;;;5.47;;
35488;SDS011;21602;55.670;37.578;2023-01-28T06:36:09;9.13;;;6.28;;
35488;SDS011;21602;55.670;37.578;2023-01-28T06:38:35;8.88;;;5.53;;
35488;SDS011;21602;55.670;37.578;2023-01-28T06:41:01;8.65;;;6.30;;
35488;SDS011;21602;55.670;37.578;2023-01-28T06:43:28;12.55;;;6.88;;
35488;SDS011;21602;55.670;37.578;2023-01-28T06:45:55;9.27;;;6.03;;
35488;SDS011;21602;55.670;37.578;2023-01-28T06:50:49;10.40;;;6.78;;
35488;SDS011;21602;55.670;37.578;2023-01-28T06:53:15;11.10;;;7.20;;
35488;SDS011;21602;55.670;37.578;2023-01-28T06:55:41;9.13;;;5.50;;
35488;SDS011;21602;55.670;37.578;2023-01-28T06:58:08;12.00;;;7.78;;
35488;SDS011;21602;55.670;37.578;2023-01-28T07:00:34;10.40;;;7.00;;
35488;SDS011;21602;55.670;37.578;2023-01-28T07:02:59;13.48;;;8.07;;
35488;SDS011;21602;55.670;37.578;2023-01-28T07:05:26;9.55;;;6.80;;
35488;SDS011;21602;55.670;37.578;2023-01-28T07:07:52;14.48;;;7.65;;
35488;SDS011;21602;55.670;37.578;2023-01-28T07:10:17;15.00;;;7.72;;
35488;SDS011;21602;55.670;37.578;2023-01-28T07:12:43;11.75;;;8.60;;
35488;SDS011;21602;55.670;37.578;2023-01-28T07:15:09;14.47;;;8.60;;
35488;SDS011;21602;55.670;37.578;2023-01-28T07:17:39;9.93;;;7.17;;
35488;SDS011;21602;55.670;37.578;2023-01-28T07:20:06;11.88;;;7.13;;
35488;SDS011;21602;55.670;37.578;2023-01-28T07:22:34;14.38;;;8.23;;
35488;SDS011;21602;55.670;37.578;2023-01-28T07:25:02;12.20;;;8.70;;
35488;SDS011;21602;55.670;37.578;2023-01-28T07:27:28;13.75;;;9.38;;
35488;SDS011;21602;55.670;37.578;2023-01-28T07:29:54;13.50;;;7.95;;
35488;SDS011;21602;55.670;37.578;2023-01-28T07:32:20;15.25;;;8.98;;
35488;SDS011;21602;55.670;37.578;2023-01-28T07:34:46;16.38;;;8.40;;
35488;SDS011;21602;55.670;37.578;2023-01-28T07:37:11;15.13;;;9.48;;
35488;SDS011;21602;55.670;37.578;2023-01-28T07:39:38;14.75;;;9.45;;
35488;SDS011;21602;55.670;37.578;2023-01-28T07:42:03;15.32;;;9.98;;
35488;SDS011;21602;55.670;37.578;2023-01-28T07:44:37;15.98;;;9.43;;
35488;SDS011;21602;55.670;37.578;2023-01-28T07:47:03;21.43;;;9.60;;
35488;SDS011;21602;55.670;37.578;2023-01-28T07:49:32;18.10;;;10.68;;
35488;SDS011;21602;55.670;37.578;2023-01-28T07:51:58;19.25;;;9.82;;
35488;SDS011;21602;55.670;37.578;2023-01-28T07:54:24;20.48;;;10.50;;
35488;SDS011;21602;55.670;37.578;2023-01-28T07:56:49;16.75;;;10.10;;
35488;SDS011;21602;55.670;37.578;2023-01-28T07:59:18;16.08;;;9.13;;
35488;SDS011;21602;55.670;37.578;2023-01-28T08:01:44;18.67;;;9.88;;
35488;SDS011;21602;55.670;37.578;2023-01-28T08:04:10;20.90;;;12.50;;
35488;SDS011;21602;55.670;37.578;2023-01-28T08:06:36;18.85;;;10.93;;
35488;SDS011;21602;55.670;37.578;2023-01-28T08:09:03;20.70;;;11.93;;
35488;SDS011;21602;55.670;37.578;2023-01-28T08:13:57;16.33;;;10.53;;
35488;SDS011;21602;55.670;37.578;2023-01-28T08:16:22;21.63;;;9.55;;
35488;SDS011;21602;55.670;37.578;2023-01-28T08:18:48;19.53;;;9.20;;
35488;SDS011;21602;55.670;37.578;2023-01-28T08:21:14;16.27;;;9.65;;
35488;SDS011;21602;55.670;37.578;2023-01-28T08:23:40;15.55;;;10.00;;
35488;SDS011;21602;55.670;37.578;2023-01-28T08:26:06;15.32;;;10.60;;
35488;SDS011;21602;55.670;37.578;2023-01-28T08:28:31;14.23;;;9.02;;
35488;SDS011;21602;55.670;37.578;2023-01-28T08:31:01;15.27;;;9.93;;
35488;SDS011;21602;55.670;37.578;2023-01-28T08:33:27;9.55;;;6.75;;
35488;SDS011;21602;55.670;37.578;2023-01-28T08:35:53;16.50;;;9.70;;
35488;SDS011;21602;55.670;37.578;2023-01-28T08:38:19;16.30;;;9.40;;
35488;SDS011;21602;55.670;37.578;2023-01-28T08:40:45;18.75;;;9.13;;
35488;SDS011;21602;55.670;37.578;2023-01-28T08:43:12;14.90;;;9.52;;
35488;SDS011;21602;55.670;37.578;2023-01-28T08:45:40;15.50;;;9.75;;
35488;SDS011;21602;55.670;37.578;2023-01-28T08:48:08;16.58;;;10.25;;
35488;SDS011;21602;55.670;37.578;2023-01-28T08:50:38;12.50;;;8.45;;
35488;SDS011;21602;55.670;37.578;2023-01-28T08:53:06;16.05;;;8.95;;
35488;SDS011;21602;55.670;37.578;2023-01-28T08:55:35;15.68;;;9.20;;
35488;SDS011;21602;55.670;37.578;2023-01-28T08:58:04;13.88;;;9.35;;
35488;SDS011;21602;55.670;37.578;2023-01-28T09:00:32;13.52;;;9.43;;
35488;SDS011;21602;55.670;37.578;2023-01-28T09:02:58;13.90;;;8.95;;
35488;SDS011;21602;55.670;37.578;2023-01-28T09:05:24;13.20;;;8.60;;
35488;SDS011;21602;55.670;37.578;2023-01-28T09:07:50;12.30;;;8.63;;
35488;SDS011;21602;55.670;37.578;2023-01-28T09:10:16;13.50;;;9.18;;
35488;SDS011;21602;55.670;37.578;2023-01-28T09:12:45;15.43;;;10.00;;
35488;SDS011;21602;55.670;37.578;2023-01-28T09:15:11;17.65;;;10.02;;
35488;SDS011;21602;55.670;37.578;2023-01-28T09:17:37;16.98;;;9.15;;
35488;SDS011;21602;55.670;37.578;2023-01-28T09:20:05;16.85;;;9.20;;
35488;SDS011;21602;55.670;37.578;2023-01-28T09:22:34;16.27;;;10.25;;
35488;SDS011;21602;55.670;37.578;2023-01-28T09:25:01;15.45;;;9.35;;
35488;SDS011;21602;55.670;37.578;2023-01-28T09:27:28;16.42;;;9.18;;
35488;SDS011;21602;55.670;37.578;2023-01-28T09:29:54;11.73;;;8.32;;
35488;SDS011;21602;55.670;37.578;2023-01-28T09:32:20;14.43;;;9.32;;
35488;SDS011;21602;55.670;37.578;2023-01-28T09:34:47;14.35;;;8.82;;
35488;SDS011;21602;55.670;37.578;2023-01-28T09:37:13;14.05;;;9.32;;
35488;SDS011;21602;55.670;37.578;2023-01-28T09:39:39;16.25;;;10.20;;
35488;SDS011;21602;55.670;37.578;2023-01-28T09:47:33;15.18;;;8.60;;
35488;SDS011;21602;55.670;37.578;2023-01-28T09:50:05;12.98;;;9.20;;
35488;SDS011;21602;55.670;37.578;2023-01-28T09:52:36;13.88;;;9.35;;
35488;SDS011;21602;55.670;37.578;2023-01-28T09:55:21;16.77;;;9.82;;
35488;SDS011;21602;55.670;37.578;2023-01-28T09:57:55;16.58;;;9.73;;
35488;SDS011;21602;55.670;37.578;2023-01-28T10:00:27;15.55;;;9.32;;
35488;SDS011;21602;55.670;37.578;2023-01-28T10:03:03;17.90;;;10.13;;
35488;SDS011;21602;55.670;37.578;2023-01-28T10:05:32;14.65;;;9.18;;
35488;SDS011;21602;55.670;37.578;2023-01-28T10:11:00;15.25;;;9.57;;
35488;SDS011;21602;55.670;37.578;2023-01-28T10:13:40;17.00;;;10.00;;
35488;SDS011;21602;55.670;37.578;2023-01-28T10:16:28;14.00;;;8.70;;
35488;SDS011;21602;55.670;37.578;2023-01-28T10:19:15;16.40;;;9.00;;
35488;SDS011;21602;55.670;37.578;2023-01-28T10:22:01;15.40;;;8.57;;
35488;SDS011;21602;55.670;37.578;2023-01-28T10:24:46;16.67;;;9.88;;
35488;SDS011;21602;55.670;37.578;2023-01-28T10:27:19;17.48;;;10.07;;
35488;SDS011;21602;55.670;37.578;2023-01-28T10:29:47;18.52;;;10.45;;
35488;SDS011;21602;55.670;37.578;2023-01-28T10:34:53;16.23;;;9.90;;
35488;SDS011;21602;55.670;37.578;2023-01-28T10:37:20;18.30;;;10.13;;
35488;SDS011;21602;55.670;37.578;2023-01-28T10:39:47;21.92;;;11.13;;
35488;SDS011;21602;55.670;37.578;2023-01-28T10:42:34;17.73;;;10.50;;
35488;SDS011;21602;55.670;37.578;2023-01-28T10:45:22;16.70;;;10.27;;
35488;SDS011;21602;55.670;37.578;2023-01-28T10:50:57;19.33;;;11.25;;
35488;SDS011;21602;55.670;37.578;2023-01-28T10:53:40;18.55;;;11.65;;
35488;SDS011;21602;55.670;37.578;2023-01-28T10:56:13;20.35;;;11.40;;
35488;SDS011;21602;55.670;37.578;2023-01-28T10:59:00;18.92;;;11.40;;
35488;SDS011;21602;55.670;37.578;2023-01-28T11:04:43;18.77;;;11.52;;
35488;SDS011;21602;55.670;37.578;2023-01-28T11:07:20;24.65;;;11.45;;
35488;SDS011;21602;55.670;37.578;2023-01-28T11:10:01;21.13;;;11.93;;
35488;SDS011;21602;55.670;37.578;2023-01-28T11:12:29;26.77;;;12.65;;
35488;SDS011;21602;55.670;37.578;2023-01-28T11:14:57;22.83;;;13.10;;
35488;SDS011;21602;55.670;37.578;2023-01-28T11:17:36;18.85;;;11.93;;
35488;SDS011;21602;55.670;37.578;2023-01-28T11:20:11;20.30;;;12.73;;
35488;SDS011;21602;55.670;37.578;2023-01-28T11:22:52;22.42;;;13.48;;
35488;SDS011;21602;55.670;37.578;2023-01-28T11:27:57;22.25;;;12.90;;
35488;SDS011;21602;55.670;37.578;2023-01-28T11:30:30;22.67;;;13.55;;
35488;SDS011;21602;55.670;37.578;2023-01-28T11:35:32;19.92;;;12.07;;
35488;SDS011;21602;55.670;37.578;2023-01-28T11:37:58;23.08;;;13.50;;
35488;SDS011;21602;55.670;37.578;2023-01-28T11:40:25;20.85;;;11.82;;
35488;SDS011;21602;55.670;37.578;2023-01-28T11:42:52;23.08;;;12.55;;
35488;SDS011;21602;55.670;37.578;2023-01-28T11:49:19;23.00;;;13.13;;
35488;SDS011;21602;55.670;37.578;2023-01-28T11:51:59;21.67;;;12.75;;
35488;SDS011;21602;55.670;37.578;2023-01-28T12:03:08;21.25;;;13.25;;
35488;SDS011;21602;55.670;37.578;2023-01-28T12:05:54;23.38;;;13.32;;
35488;SDS011;21602;55.670;37.578;2023-01-28T12:08:53;23.80;;;14.30;;
35488;SDS011;21602;55.670;37.578;2023-01-28T12:11:29;23.05;;;13.77;;
35488;SDS011;21602;55.670;37.578;2023-01-28T12:28:20;27.30;;;14.50;;
35488;SDS011;21602;55.670;37.578;2023-01-28T12:45:32;23.20;;;13.95;;
35488;SDS011;21602;55.670;37.578;2023-01-28T12:50:41;25.50;;;15.05;;
35488;SDS011;21602;55.670;37.578;2023-01-28T12:56:45;21.20;;;13.23;;
35488;SDS011;21602;55.670;37.578;2023-01-28T13:02:00;19.67;;;13.18;;
35488;SDS011;21602;55.670;37.578;2023-01-28T13:04:39;26.50;;;13.52;;
35488;SDS011;21602;55.670;37.578;2023-01-28T13:07:17;28.98;;;15.23;;
35488;SDS011;21602;55.670;37.578;2023-01-28T13:10:18;24.27;;;14.43;;
35488;SDS011;21602;55.670;37.578;2023-01-28T13:12:49;28.55;;;14.95;;
35488;SDS011;21602;55.670;37.578;2023-01-28T13:15:17;26.25;;;15.43;;
35488;SDS011;21602;55.670;37.578;2023-01-28T13:18:04;25.55;;;13.50;;
35488;SDS011;21602;55.670;37.578;2023-01-28T13:20:46;20.60;;;12.30;;
35488;SDS011;21602;55.670;37.578;2023-01-28T13:28:43;25.93;;;14.70;;
35488;SDS011;21602;55.670;37.578;2023-01-28T13:31:14;23.30;;;13.65;;
35488;SDS011;21602;55.670;37.578;2023-01-28T13:34:01;30.10;;;15.07;;
35488;SDS011;21602;55.670;37.578;2023-01-28T13:36:30;28.73;;;13.90;;
35488;SDS011;21602;55.670;37.578;2023-01-28T13:41:42;25.27;;;14.27;;
35488;SDS011;21602;55.670;37.578;2023-01-28T13:44:32;26.30;;;16.25;;
35488;SDS011;21602;55.670;37.578;2023-01-28T13:54:50;27.17;;;15.05;;
35488;SDS011;21602;55.670;37.578;2023-01-28T14:20:03;30.30;;;16.38;;
35488;SDS011;21602;55.670;37.578;2023-01-28T14:22:40;30.17;;;17.88;;
35488;SDS011;21602;55.670;37.578;2023-01-28T14:25:10;38.45;;;18.30;;
35488;SDS011;21602;55.670;37.578;2023-01-28T14:27:40;35.10;;;19.73;;
35488;SDS011;21602;55.670;37.578;2023-01-28T14:30:24;38.55;;;17.90;;
35488;SDS011;21602;55.670;37.578;2023-01-28T14:33:09;34.05;;;17.73;;
35488;SDS011;21602;55.670;37.578;2023-01-28T14:35:37;32.80;;;18.20;;
35488;SDS011;21602;55.670;37.578;2023-01-28T14:38:08;31.58;;;18.40;;
35488;SDS011;21602;55.670;37.578;2023-01-28T14:40:39;31.80;;;17.60;;
35488;SDS011;21602;55.670;37.578;2023-01-28T14:43:06;36.03;;;19.00;;
35488;SDS011;21602;55.670;37.578;2023-01-28T14:45:44;35.22;;;18.05;;
35488;SDS011;21602;55.670;37.578;2023-01-28T14:48:30;30.23;;;17.48;;
35488;SDS011;21602;55.670;37.578;2023-01-28T15:02:29;39.88;;;21.85;;
35488;SDS011;21602;55.670;37.578;2023-01-28T15:05:19;38.03;;;20.27;;
35488;SDS011;21602;55.670;37.578;2023-01-28T15:07:52;35.95;;;20.42;;
35488;SDS011;21602;55.670;37.578;2023-01-28T15:10:29;35.27;;;18.97;;
35488;SDS011;21602;55.670;37.578;2023-01-28T15:12:58;36.67;;;19.83;;
35488;SDS011;21602;55.670;37.578;2023-01-28T15:15:33;34.30;;;19.27;;
35488;SDS011;21602;55.670;37.578;2023-01-28T15:18:03;37.92;;;19.35;;
35488;SDS011;21602;55.670;37.578;2023-01-28T15:20:35;36.53;;;18.90;;
35488;SDS011;21602;55.670;37.578;2023-01-28T15:23:00;37.67;;;19.58;;
35488;SDS011;21602;55.670;37.578;2023-01-28T15:25:30;30.98;;;18.13;;
35488;SDS011;21602;55.670;37.578;2023-01-28T15:27:58;34.47;;;19.98;;
35488;SDS011;21602;55.670;37.578;2023-01-28T15:30:29;37.38;;;20.17;;
35488;SDS011;21602;55.670;37.578;2023-01-28T15:33:15;37.67;;;20.13;;
35488;SDS011;21602;55.670;37.578;2023-01-28T15:35:52;36.28;;;19.92;;
35488;SDS011;21602;55.670;37.578;2023-01-28T15:38:22;41.30;;;21.80;;
35488;SDS011;21602;55.670;37.578;2023-01-28T15:40:54;33.10;;;18.15;;
35488;SDS011;21602;55.670;37.578;2023-01-28T15:43:35;33.13;;;19.27;;
35488;SDS011;21602;55.670;37.578;2023-01-28T15:46:16;33.97;;;19.33;;
35488;SDS011;21602;55.670;37.578;2023-01-28T15:48:47;34.55;;;19.08;;
35488;SDS011;21602;55.670;37.578;2023-01-28T15:51:25;38.30;;;20.45;;
35488;SDS011;21602;55.670;37.578;2023-01-28T15:53:57;36.75;;;19.73;;
35488;SDS011;21602;55.670;37.578;2023-01-28T15:56:36;34.10;;;19.58;;
35488;SDS011;21602;55.670;37.578;2023-01-28T16:01:42;34.13;;;18.90;;
35488;SDS011;21602;55.670;37.578;2023-01-28T16:04:21;35.42;;;19.50;;
35488;SDS011;21602;55.670;37.578;2023-01-28T16:09:26;31.50;;;17.52;;
35488;SDS011;21602;55.670;37.578;2023-01-28T16:12:07;34.83;;;18.33;;
35488;SDS011;21602;55.670;37.578;2023-01-28T16:14:42;31.25;;;18.25;;
35488;SDS011;21602;55.670;37.578;2023-01-28T16:17:09;33.45;;;18.13;;
35488;SDS011;21602;55.670;37.578;2023-01-28T16:19:41;36.80;;;18.48;;
35488;SDS011;21602;55.670;37.578;2023-01-28T16:22:19;30.25;;;17.20;;
35488;SDS011;21602;55.670;37.578;2023-01-28T16:24:52;39.33;;;18.85;;
35488;SDS011;21602;55.670;37.578;2023-01-28T16:27:22;33.25;;;17.55;;
35488;SDS011;21602;55.670;37.578;2023-01-28T16:29:50;32.13;;;17.45;;
35488;SDS011;21602;55.670;37.578;2023-01-28T16:34:58;31.77;;;18.23;;
35488;SDS011;21602;55.670;37.578;2023-01-28T16:37:25;36.80;;;19.75;;
35488;SDS011;21602;55.670;37.578;2023-01-28T16:39:51;36.03;;;20.40;;
35488;SDS011;21602;55.670;37.578;2023-01-28T16:42:17;37.83;;;19.77;;
35488;SDS011;21602;55.670;37.578;2023-01-28T16:44:44;35.10;;;19.80;;
35488;SDS011;21602;55.670;37.578;2023-01-28T16:47:10;33.15;;;19.45;;
35488;SDS011;21602;55.670;37.578;2023-01-28T16:49:37;38.85;;;20.20;;
35488;SDS011;21602;55.670;37.578;2023-01-28T16:52:04;33.58;;;18.20;;
35488;SDS011;21602;55.670;37.578;2023-01-28T16:54:38;34.15;;;18.30;;
35488;SDS011;21602;55.670;37.578;2023-01-28T16:57:24;34.67;;;18.45;;
35488;SDS011;21602;55.670;37.578;2023-01-28T16:59:50;33.10;;;18.58;;
35488;SDS011;21602;55.670;37.578;2023-01-28T17:02:17;40.72;;;18.02;;
35488;SDS011;21602;55.670;37.578;2023-01-28T17:04:43;31.58;;;18.02;;
35488;SDS011;21602;55.670;37.578;2023-01-28T17:07:08;31.95;;;17.48;;
35488;SDS011;21602;55.670;37.578;2023-01-28T17:09:35;32.88;;;18.38;;
35488;SDS011;21602;55.670;37.578;2023-01-28T17:12:01;30.67;;;18.17;;
35488;SDS011;21602;55.670;37.578;2023-01-28T17:14:34;38.58;;;17.73;;
35488;SDS011;21602;55.670;37.578;2023-01-28T17:17:00;40.83;;;19.17;;
35488;SDS011;21602;55.670;37.578;2023-01-28T17:19:27;23.02;;;15.98;;